Time;durP1;ratioP1;P1;durP2;ratioP2;P2;SDS_P1;SDS_P2;PMS_P1;PMS_P2;Temp;Humidity;BMP_temperature;BMP_pressure;BME280_temperature;BME280_humidity;BME280_pressure;Samples;Min_cycle;Max_cycle;Signal;HPM_P1;HPM_P2
2022/06/23 00:01:57;;;;;;;3.13;2.37;;;17.00;99.90;;;;;;5049876;28;20618;-52
2022/06/23 00:04:35;;;;;;;5.20;3.13;;;17.00;99.90;;;;;;5059013;28;20427;-51
2022/06/23 00:07:06;;;;;;;3.50;2.70;;;16.90;99.90;;;;;;5052087;28;20419;-50
2022/06/23 00:09:51;;;;;;;3.17;2.87;;;16.70;99.90;;;;;;5060197;28;20404;-49
2022/06/23 00:12:18;;;;;;;2.73;2.53;;;16.60;99.90;;;;;;5052119;28;20438;-49
2022/06/23 00:14:49;;;;;;;3.27;2.37;;;16.70;99.90;;;;;;5055370;28;20789;-47
2022/06/23 00:17:22;;;;;;;3.30;3.00;;;16.70;99.90;;;;;;5053601;28;20650;-52
2022/06/23 00:19:49;;;;;;;4.70;3.20;;;16.60;99.90;;;;;;5042321;28;20819;-48
2022/06/23 00:22:20;;;;;;;2.97;2.73;;;16.50;99.90;;;;;;5055920;28;20436;-47
2022/06/23 00:24:48;;;;;;;3.63;2.83;;;16.60;99.90;;;;;;5041268;28;20509;-46
2022/06/23 00:27:18;;;;;;;4.23;3.50;;;16.70;99.90;;;;;;5057583;28;20485;-50
2022/06/23 00:29:46;;;;;;;2.63;2.43;;;16.60;99.90;;;;;;5051335;28;20785;-47
2022/06/23 00:32:14;;;;;;;3.07;2.83;;;16.60;99.90;;;;;;5046526;28;20401;-53
2022/06/23 00:34:52;;;;;;;3.90;2.93;;;16.50;99.90;;;;;;5048270;28;20438;-54
2022/06/23 00:37:20;;;;;;;3.13;2.93;;;16.50;99.90;;;;;;5046298;28;20643;-48
2022/06/23 00:40:11;;;;;;;4.43;2.83;;;16.40;99.90;;;;;;5049779;28;20663;-49
2022/06/23 00:42:49;;;;;;;3.53;2.50;;;16.40;99.90;;;;;;5058236;28;20681;-49
2022/06/23 00:45:29;;;;;;;4.30;3.10;;;16.50;99.90;;;;;;5047780;28;20453;-52
2022/06/23 00:48:06;;;;;;;2.87;2.63;;;16.30;99.90;;;;;;5050392;28;20449;-49
2022/06/23 00:50:49;;;;;;;4.10;3.50;;;16.30;99.90;;;;;;5052794;28;20462;-51
2022/06/23 00:53:44;;;;;;;3.83;2.30;;;16.30;99.90;;;;;;5054872;28;20446;-50
2022/06/23 00:56:32;;;;;;;3.13;2.40;;;16.20;99.90;;;;;;5047758;28;20430;-50
2022/06/23 00:59:14;;;;;;;4.70;3.43;;;16.30;99.90;;;;;;5047889;28;20671;-48
2022/06/23 01:01:59;;;;;;;3.83;3.03;;;16.20;99.90;;;;;;5051481;28;20663;-48
2022/06/23 01:04:35;;;;;;;3.87;3.27;;;16.10;99.90;;;;;;5058006;28;20438;-48
2022/06/23 01:07:28;;;;;;;2.60;2.40;;;16.20;99.90;;;;;;5051379;28;20794;-50
2022/06/23 01:10:10;;;;;;;4.07;3.07;;;16.10;99.90;;;;;;5045230;28;20435;-54
2022/06/23 01:12:41;;;;;;;3.23;2.57;;;16.20;99.90;;;;;;5051899;28;20438;-51
2022/06/23 01:15:19;;;;;;;3.93;2.77;;;16.20;99.90;;;;;;5053994;28;20510;-52
2022/06/23 01:18:06;;;;;;;3.17;2.80;;;16.20;99.90;;;;;;5041764;28;20411;-52
2022/06/23 01:20:55;;;;;;;2.63;2.43;;;16.20;99.90;;;;;;5053111;28;20452;-48
2022/06/23 01:23:45;;;;;;;2.60;2.40;;;15.90;99.90;;;;;;5054282;28;20819;-51
2022/06/23 01:26:25;;;;;;;4.27;3.23;;;16.00;99.90;;;;;;5039395;28;20430;-52
2022/06/23 01:29:11;;;;;;;2.40;2.20;;;16.10;99.90;;;;;;5045196;28;20432;-48
2022/06/23 01:31:53;;;;;;;3.40;2.90;;;16.10;99.90;;;;;;5050361;28;20669;-48
2022/06/23 01:34:20;;;;;;;4.20;2.80;;;16.10;99.90;;;;;;5038926;28;20455;-52
2022/06/23 01:37:22;;;;;;;4.93;3.03;;;16.10;99.90;;;;;;5035925;28;20436;-49
2022/06/23 01:40:13;;;;;;;6.03;2.90;;;16.10;99.90;;;;;;5002750;28;20616;-51
2022/06/23 01:43:14;;;;;;;6.00;3.07;;;15.90;99.90;;;;;;5056403;28;20439;-50
2022/06/23 01:46:01;;;;;;;3.50;3.10;;;16.00;99.90;;;;;;5006641;28;20468;-50
2022/06/23 01:48:52;;;;;;;3.63;2.83;;;15.70;99.90;;;;;;5052408;28;20423;-48
2022/06/23 01:51:22;;;;;;;2.60;2.43;;;15.90;99.90;;;;;;5054151;28;20746;-51
2022/06/23 01:53:53;;;;;;;3.60;3.10;;;15.80;99.90;;;;;;5043993;28;20453;-54
2022/06/23 01:56:20;;;;;;;3.47;3.17;;;15.90;99.90;;;;;;5053839;28;20821;-48
2022/06/23 01:58:51;;;;;;;3.93;3.43;;;15.90;99.90;;;;;;5052062;28;20412;-51
2022/06/23 02:01:47;;;;;;;3.80;3.00;;;15.90;99.90;;;;;;5053723;28;20513;-54
2022/06/23 02:04:20;;;;;;;4.03;3.33;;;15.90;99.90;;;;;;5051718;28;20485;-50
2022/06/23 02:07:06;;;;;;;3.73;3.43;;;15.80;99.90;;;;;;5046194;28;20431;-47
2022/06/23 02:09:41;;;;;;;4.27;3.63;;;15.70;99.90;;;;;;5058116;28;20420;-49
2022/06/23 02:12:39;;;;;;;3.73;3.40;;;15.60;99.90;;;;;;5050032;28;20798;-51
2022/06/23 02:15:17;;;;;;;5.80;3.23;;;15.70;99.90;;;;;;5042230;28;20459;-52
2022/06/23 02:17:54;;;;;;;4.30;3.80;;;15.60;99.90;;;;;;5053125;28;20447;-51
2022/06/23 02:20:34;;;;;;;3.83;3.53;;;15.60;99.90;;;;;;5049966;28;20511;-48
2022/06/23 02:23:18;;;;;;;6.93;3.50;;;15.60;99.90;;;;;;5053512;28;20585;-52
2022/06/23 02:26:00;;;;;;;3.67;3.33;;;15.50;99.90;;;;;;5052345;28;20631;-51
2022/06/23 02:28:34;;;;;;;4.27;3.43;;;15.40;99.90;;;;;;5052442;28;20436;-52
2022/06/23 02:31:17;;;;;;;2.70;2.50;;;15.50;99.90;;;;;;5049396;28;20450;-52
2022/06/23 02:33:53;;;;;;;8.07;4.80;;;15.40;99.90;;;;;;5055804;28;20571;-53
2022/06/23 02:36:24;;;;;;;5.30;3.80;;;15.50;99.90;;;;;;5042954;28;20483;-54
2022/06/23 02:38:55;;;;;;;2.88;2.67;;;15.30;99.90;;;;;;5040836;28;20471;-54
2022/06/23 02:41:28;;;;;;;3.20;3.00;;;15.40;99.90;;;;;;5038395;28;20231;-53
2022/06/23 02:44:28;;;;;;;3.13;2.87;;;15.40;99.90;;;;;;5049017;28;20407;-55
2022/06/23 02:47:00;;;;;;;3.80;3.50;;;15.40;99.90;;;;;;5038682;28;20425;-53
2022/06/23 02:49:57;;;;;;;3.63;3.40;;;15.50;99.90;;;;;;5036639;28;20476;-50
2022/06/23 02:52:36;;;;;;;4.80;3.50;;;15.50;99.90;;;;;;5049002;28;20436;-49
2022/06/23 02:55:38;;;;;;;4.70;3.65;;;15.60;99.90;;;;;;5051918;28;20450;-53
2022/06/23 02:58:18;;;;;;;4.70;2.87;;;15.60;99.90;;;;;;4989906;28;20212;-54
2022/06/23 03:00:59;;;;;;;4.47;3.90;;;15.60;99.90;;;;;;5040062;28;20469;-54
2022/06/23 03:03:40;;;;;;;3.60;3.30;;;15.60;99.90;;;;;;5051858;28;20451;-54
2022/06/23 03:06:18;;;;;;;3.70;3.40;;;15.60;99.90;;;;;;5048909;28;20508;-49
2022/06/23 03:08:59;;;;;;;4.53;3.20;;;15.60;99.90;;;;;;5055499;28;20439;-48
2022/06/23 03:11:54;;;;;;;5.00;3.40;;;15.60;99.90;;;;;;5047186;28;20490;-53
2022/06/23 03:14:46;;;;;;;7.20;3.93;;;15.60;99.90;;;;;;5050990;28;20440;-51
2022/06/23 03:17:35;;;;;;;3.77;3.30;;;15.60;99.90;;;;;;5047244;28;20442;-50
2022/06/23 03:20:28;;;;;;;4.13;3.72;;;15.60;99.90;;;;;;5046812;28;20433;-46
2022/06/23 03:23:08;;;;;;;3.53;3.33;;;15.60;99.90;;;;;;5045823;28;20228;-46
2022/06/23 03:25:59;;;;;;;3.80;3.20;;;15.70;99.90;;;;;;5055434;28;20509;-48
2022/06/23 03:28:33;;;;;;;5.47;5.07;;;15.90;99.90;;;;;;5046979;28;20443;-51
2022/06/23 03:31:00;;;;;;;5.97;3.83;;;16.10;99.90;;;;;;5053949;28;20409;-50
2022/06/23 03:33:34;;;;;;;3.33;3.00;;;16.50;99.90;;;;;;5049680;28;20676;-53
2022/06/23 03:36:30;;;;;;;4.60;4.30;;;17.30;99.90;;;;;;5039422;28;20453;-51
2022/06/23 03:42:10;;;;;;;4.87;4.00;;;18.30;99.90;;;;;;5042941;28;20495;-50
2022/06/23 03:44:44;;;;;;;6.87;4.50;;;19.00;99.90;;;;;;5041336;28;20486;-47
2022/06/23 03:47:30;;;;;;;7.07;4.67;;;19.40;99.90;;;;;;5047579;28;20437;-49
2022/06/23 03:50:28;;;;;;;6.13;4.20;;;19.20;99.90;;;;;;5042488;28;20735;-48
2022/06/23 03:53:07;;;;;;;4.70;4.10;;;19.40;99.90;;;;;;5038720;28;20445;-48
2022/06/23 03:55:44;;;;;;;3.90;3.60;;;19.60;99.90;;;;;;5050548;28;20770;-49
2022/06/23 03:58:23;;;;;;;8.80;3.80;;;19.80;99.90;;;;;;5051648;28;20436;-53
2022/06/23 04:01:16;;;;;;;4.30;4.03;;;19.80;99.90;;;;;;5040087;28;20790;-50
2022/06/23 04:03:51;;;;;;;3.77;3.40;;;19.40;99.90;;;;;;5040510;28;20458;-55
2022/06/23 04:06:32;;;;;;;4.93;3.87;;;19.10;99.90;;;;;;5049128;28;20502;-53
2022/06/23 04:09:28;;;;;;;4.03;3.73;;;18.90;99.90;;;;;;5037620;28;20441;-49
2022/06/23 04:12:03;;;;;;;4.30;3.90;;;18.70;99.90;;;;;;5038371;28;20466;-46
2022/06/23 04:14:33;;;;;;;7.17;3.80;;;18.30;99.90;;;;;;5027332;28;20457;-46
2022/06/23 04:17:10;;;;;;;5.10;4.60;;;18.20;99.90;;;;;;5051356;28;20425;-45
2022/06/23 04:19:47;;;;;;;10.10;5.00;;;18.20;99.90;;;;;;5043919;28;20529;-46
2022/06/23 04:22:31;;;;;;;6.83;4.70;;;18.30;99.90;;;;;;5042336;28;20475;-48
2022/06/23 04:25:01;;;;;;;4.87;4.47;;;18.30;99.90;;;;;;5038565;28;20448;-50
2022/06/23 04:27:58;;;;;;;8.80;5.20;;;18.30;99.90;;;;;;5043003;28;20448;-47
2022/06/23 04:30:26;;;;;;;6.57;4.10;;;18.30;99.90;;;;;;5046694;28;20460;-47
2022/06/23 04:32:56;;;;;;;5.13;4.27;;;18.30;99.90;;;;;;5042920;28;20753;-49
2022/06/23 04:35:28;;;;;;;5.20;4.10;;;18.30;99.90;;;;;;5051766;28;20452;-50
2022/06/23 04:38:13;;;;;;;4.50;4.13;;;18.30;99.90;;;;;;5038732;28;20760;-48
2022/06/23 04:40:41;;;;;;;4.97;3.70;;;18.50;99.90;;;;;;5049356;28;20544;-52
2022/06/23 04:43:16;;;;;;;4.67;3.90;;;18.60;99.90;;;;;;5047693;28;20595;-52
2022/06/23 04:45:56;;;;;;;4.47;3.83;;;18.50;99.90;;;;;;5049207;28;20414;-48
2022/06/23 04:48:33;;;;;;;4.90;4.50;;;18.40;99.90;;;;;;5041122;28;20452;-46
2022/06/23 04:51:13;;;;;;;4.93;3.97;;;18.50;99.90;;;;;;5058790;28;20462;-52
2022/06/23 04:53:59;;;;;;;9.50;5.10;;;18.50;99.90;;;;;;5043816;28;20445;-53
2022/06/23 04:56:45;;;;;;;5.70;4.37;;;18.60;99.90;;;;;;5031599;28;20465;-52
2022/06/23 04:59:40;;;;;;;5.70;3.60;;;18.70;99.90;;;;;;5024428;28;20484;-53
2022/06/23 05:02:32;;;;;;;5.20;4.80;;;18.70;99.90;;;;;;5042500;28;20527;-49
2022/06/23 05:05:15;;;;;;;5.07;4.53;;;18.80;99.90;;;;;;5039999;28;20447;-46
2022/06/23 05:07:51;;;;;;;5.87;5.27;;;19.00;99.90;;;;;;5036309;28;20415;-50
2022/06/23 05:10:36;;;;;;;4.73;4.33;;;19.10;99.90;;;;;;5032260;28;20441;-49
2022/06/23 05:13:25;;;;;;;4.53;4.23;;;19.20;99.90;;;;;;5029359;28;20489;-50
2022/06/23 05:16:06;;;;;;;5.60;4.37;;;19.30;99.90;;;;;;5047923;28;20444;-47
2022/06/23 05:18:40;;;;;;;4.23;3.83;;;19.40;99.90;;;;;;5049789;28;20433;-51
2022/06/23 05:21:18;;;;;;;4.50;4.20;;;19.40;99.90;;;;;;5041783;28;20496;-50
2022/06/23 05:23:54;;;;;;;3.90;3.60;;;19.50;99.90;;;;;;5055143;28;20461;-50
2022/06/23 05:26:29;;;;;;;6.80;5.73;;;19.60;99.90;;;;;;5039980;28;20443;-51
2022/06/23 05:29:15;;;;;;;5.37;4.90;;;19.60;99.90;;;;;;5056779;28;20562;-47
2022/06/23 05:31:47;;;;;;;4.23;3.93;;;19.70;99.90;;;;;;5048353;28;20487;-48
2022/06/23 05:34:29;;;;;;;4.40;3.40;;;19.90;99.90;;;;;;5057117;28;20433;-54
2022/06/23 05:37:05;;;;;;;5.47;5.07;;;20.00;99.90;;;;;;5038268;28;20441;-54
2022/06/23 05:40:14;;;;;;;4.60;3.77;;;20.20;99.90;;;;;;5048579;28;20428;-51
2022/06/23 05:42:46;;;;;;;3.90;3.60;;;20.30;99.90;;;;;;5018387;28;20546;-52
2022/06/23 05:45:26;;;;;;;3.80;3.40;;;20.40;99.90;;;;;;5051609;28;20469;-48
2022/06/23 05:47:55;;;;;;;13.07;8.60;;;20.60;99.90;;;;;;5038881;28;20461;-51
2022/06/23 05:50:40;;;;;;;5.60;5.10;;;20.70;99.90;;;;;;5047953;28;20451;-50
2022/06/23 05:53:16;;;;;;;4.53;2.80;;;20.80;99.90;;;;;;5052504;28;20439;-51
2022/06/23 05:56:03;;;;;;;4.60;3.50;;;20.80;99.90;;;;;;5052191;28;20457;-50
2022/06/23 05:58:49;;;;;;;5.00;3.20;;;20.90;99.90;;;;;;5053109;28;20451;-49
2022/06/23 06:01:25;;;;;;;3.43;2.97;;;21.10;99.90;;;;;;5053668;28;20494;-49
2022/06/23 06:04:06;;;;;;;8.13;4.00;;;21.30;99.90;;;;;;5047302;28;20396;-52
2022/06/23 06:06:34;;;;;;;3.73;3.20;;;21.30;99.90;;;;;;5056038;28;20402;-52
2022/06/23 06:11:55;;;;;;;5.23;3.23;;;21.70;99.90;;;;;;5042633;28;20724;-51
2022/06/23 06:14:33;;;;;;;4.00;3.00;;;22.00;99.90;;;;;;5046652;28;20589;-47
2022/06/23 06:17:01;;;;;;;5.53;3.03;;;22.10;99.90;;;;;;5055349;28;20412;-55
2022/06/23 06:19:31;;;;;;;4.70;3.20;;;22.30;99.90;;;;;;5050605;28;20405;-52
2022/06/23 06:22:13;;;;;;;6.00;3.23;;;22.40;99.90;;;;;;5052314;28;20557;-53
2022/06/23 06:24:45;;;;;;;2.60;2.33;;;22.80;99.90;;;;;;5051426;28;20488;-54
2022/06/23 06:27:19;;;;;;;3.33;2.80;;;23.40;99.90;;;;;;5053068;28;20429;-53
2022/06/23 06:29:48;;;;;;;2.70;2.50;;;23.70;99.90;;;;;;5041617;28;20414;-53
2022/06/23 06:32:30;;;;;;;4.80;3.00;;;23.90;99.90;;;;;;5052548;28;20829;-49
2022/06/23 06:35:19;;;;;;;3.73;2.70;;;24.10;99.90;;;;;;5044631;28;20456;-52
2022/06/23 06:38:00;;;;;;;4.47;2.57;;;24.20;99.90;;;;;;5045224;28;20430;-51
2022/06/23 06:40:28;;;;;;;4.43;3.50;;;24.20;99.90;;;;;;5055875;28;20458;-50
2022/06/23 06:43:01;;;;;;;3.67;2.63;;;24.30;99.90;;;;;;5048448;28;20681;-52
2022/06/23 06:45:36;;;;;;;3.10;2.10;;;24.70;99.90;;;;;;5056228;28;20465;-52
2022/06/23 06:48:09;;;;;;;4.63;2.63;;;25.20;99.90;;;;;;5048981;28;20405;-54
2022/06/23 06:50:51;;;;;;;3.07;2.77;;;26.00;99.90;;;;;;5050930;28;20412;-52
2022/06/23 06:53:24;;;;;;;2.80;2.30;;;27.20;99.90;;;;;;5052219;28;20437;-55
2022/06/23 06:56:05;;;;;;;2.47;2.27;;;28.20;99.90;;;;;;5041934;28;20459;-53
2022/06/23 06:58:42;;;;;;;7.03;2.63;;;28.80;99.90;;;;;;5051696;28;20411;-51
2022/06/23 07:01:19;;;;;;;3.70;3.00;;;29.30;99.60;;;;;;5051976;28;20608;-49
2022/06/23 07:03:49;;;;;;;3.30;2.33;;;29.70;98.20;;;;;;5045477;28;20708;-55
2022/06/23 07:06:25;;;;;;;3.30;2.80;;;30.80;96.30;;;;;;5053814;28;20465;-51
2022/06/23 07:09:12;;;;;;;2.70;2.50;;;33.10;92.50;;;;;;5044579;28;20475;-54
2022/06/23 07:11:44;;;;;;;2.70;2.50;;;34.80;83.50;;;;;;5056076;28;20483;-55
2022/06/23 07:14:25;;;;;;;4.47;2.57;;;36.30;74.60;;;;;;5048740;28;20440;-53
2022/06/23 07:16:58;;;;;;;5.93;2.53;;;36.00;71.00;;;;;;5041066;28;20448;-51
2022/06/23 07:19:38;;;;;;;2.50;2.30;;;35.50;69.80;;;;;;5049482;28;20512;-51
2022/06/23 07:22:24;;;;;;;4.40;2.40;;;35.20;71.20;;;;;;5052175;28;20479;-53
2022/06/23 07:25:08;;;;;;;5.23;2.43;;;35.40;69.20;;;;;;5041157;28;20490;-51
2022/06/23 07:27:42;;;;;;;2.67;2.47;;;38.00;62.10;;;;;;5049896;28;20523;-50
2022/06/23 07:30:22;;;;;;;2.40;2.13;;;38.00;60.40;;;;;;5052068;28;20483;-53
2022/06/23 07:33:12;;;;;;;2.63;1.93;;;38.70;58.70;;;;;;5049892;28;20466;-50
2022/06/23 07:35:48;;;;;;;3.63;1.80;;;39.70;55.40;;;;;;5048539;28;20858;-53
2022/06/23 07:38:25;;;;;;;2.80;1.90;;;40.60;53.70;;;;;;5044202;28;20437;-55
2022/06/23 07:40:52;;;;;;;3.03;2.30;;;40.60;50.90;;;;;;5042482;28;20430;-55
2022/06/23 07:43:42;;;;;;;2.43;2.23;;;39.50;52.00;;;;;;5047854;28;20512;-54
2022/06/23 07:46:09;;;;;;;8.73;2.23;;;40.30;51.30;;;;;;5032119;28;20479;-52
2022/06/23 07:48:37;;;;;;;1.73;1.63;;;40.30;50.30;;;;;;5048340;28;20509;-49
2022/06/23 07:51:08;;;;;;;3.00;2.40;;;40.40;49.20;;;;;;5052028;28;20425;-52
2022/06/23 07:53:47;;;;;;;4.03;1.93;;;41.40;48.60;;;;;;5050377;28;20491;-51
2022/06/23 07:56:18;;;;;;;2.13;1.93;;;41.90;47.60;;;;;;5052037;28;20456;-52
2022/06/23 07:58:55;;;;;;;2.53;2.07;;;41.30;46.80;;;;;;5049820;28;20627;-51
2022/06/23 08:01:42;;;;;;;2.40;1.90;;;40.50;47.90;;;;;;5051494;28;20444;-55
2022/06/23 08:04:37;;;;;;;2.13;1.93;;;40.50;46.90;;;;;;5047340;28;20739;-53
2022/06/23 08:07:08;;;;;;;3.37;1.67;;;41.80;46.10;;;;;;5044014;28;20441;-55
2022/06/23 08:09:52;;;;;;;2.00;1.80;;;42.60;44.70;;;;;;5049817;28;20429;-53
2022/06/23 08:12:55;;;;;;;2.67;1.53;;;43.10;43.30;;;;;;5050780;28;20448;-51
2022/06/23 08:18:30;;;;;;;3.57;1.93;;;40.70;44.50;;;;;;5054605;28;20440;-54
2022/06/23 08:21:15;;;;;;;3.83;1.90;;;39.80;45.50;;;;;;5049722;28;20790;-53
2022/06/23 08:23:54;;;;;;;2.40;1.90;;;39.30;46.20;;;;;;5057948;28;20476;-54
2022/06/23 08:26:23;;;;;;;2.83;1.60;;;39.80;46.00;;;;;;5048448;28;20460;-54
2022/06/23 08:28:55;;;;;;;1.80;1.70;;;41.80;44.20;;;;;;5058592;28;20699;-50
2022/06/23 08:31:23;;;;;;;7.17;1.97;;;42.40;42.80;;;;;;5051589;28;20491;-53
2022/06/23 08:34:11;;;;;;;1.87;1.67;;;43.60;41.80;;;;;;5054095;28;20435;-54
2022/06/23 08:36:43;;;;;;;5.80;2.03;;;43.40;40.80;;;;;;5053665;28;20445;-52
2022/06/23 08:39:25;;;;;;;1.60;1.43;;;43.90;40.40;;;;;;5054665;28;20425;-54
2022/06/23 08:42:09;;;;;;;2.30;1.03;;;43.40;39.00;;;;;;5044125;28;20491;-54
2022/06/23 08:44:42;;;;;;;1.90;1.80;;;43.80;39.30;;;;;;5052998;28;20449;-51
2022/06/23 08:47:26;;;;;;;1.83;1.40;;;43.50;37.90;;;;;;5054741;28;20436;-53
2022/06/23 08:50:00;;;;;;;1.50;1.40;;;43.10;38.20;;;;;;5047979;28;20480;-53
2022/06/23 08:52:46;;;;;;;6.37;1.87;;;43.00;38.10;;;;;;5052245;28;20679;-49
2022/06/23 08:55:19;;;;;;;4.87;1.60;;;43.40;38.60;;;;;;5054908;28;20479;-53
2022/06/23 08:58:11;;;;;;;1.83;1.73;;;43.60;38.20;;;;;;5045922;28;20424;-53
2022/06/23 09:00:47;;;;;;;1.77;1.67;;;43.10;38.10;;;;;;5054437;28;20761;-51
2022/06/23 09:03:38;;;;;;;1.60;1.50;;;41.40;39.70;;;;;;5054472;28;20522;-53
2022/06/23 09:06:38;;;;;;;2.00;1.83;;;42.60;39.20;;;;;;5016073;28;20459;-51
2022/06/23 09:09:15;;;;;;;2.90;2.00;;;43.70;38.20;;;;;;5048269;28;20434;-55
2022/06/23 09:12:05;;;;;;;2.77;1.73;;;42.60;39.00;;;;;;5058404;28;20747;-53
2022/06/23 09:15:28;;;;;;;5.50;1.73;;;43.30;38.90;;;;;;5007635;28;20450;-56
2022/06/23 09:18:22;;;;;;;1.67;1.57;;;44.50;37.90;;;;;;4992900;28;20701;-54
2022/06/23 09:20:49;;;;;;;2.57;2.03;;;43.90;37.90;;;;;;5046740;28;20617;-53
2022/06/23 09:24:24;;;;;;;3.80;1.90;;;42.90;38.60;;;;;;5057140;28;20518;-55
2022/06/23 09:27:01;;;;;;;2.67;1.80;;;42.50;39.20;;;;;;5048401;28;20433;-55
2022/06/23 09:29:41;;;;;;;2.03;1.93;;;41.70;40.10;;;;;;5052846;28;20450;-51
2022/06/23 09:32:23;;;;;;;1.67;1.57;;;41.00;41.00;;;;;;5054320;28;20519;-54
2022/06/23 09:35:18;;;;;;;2.27;1.90;;;41.40;40.60;;;;;;5044614;28;20453;-50
2022/06/23 09:38:24;;;;;;;3.37;2.07;;;41.10;40.10;;;;;;5051245;28;20466;-51
2022/06/23 09:40:57;;;;;;;3.93;2.07;;;38.90;42.80;;;;;;4952089;29;20438;-48
2022/06/23 09:43:48;;;;;;;3.57;2.47;;;35.20;47.40;;;;;;5024068;28;20812;-50
2022/06/23 09:46:44;;;;;;;2.23;1.90;;;33.90;47.90;;;;;;5053358;28;20472;-50
2022/06/23 09:49:37;;;;;;;8.93;2.50;;;33.00;50.50;;;;;;5043826;28;20475;-47
2022/06/23 09:52:22;;;;;;;2.20;2.10;;;32.50;50.20;;;;;;5048255;28;20433;-47
2022/06/23 09:54:55;;;;;;;1.70;1.60;;;31.80;52.40;;;;;;5043244;28;20714;-50
2022/06/23 09:57:41;;;;;;;2.70;2.40;;;31.50;51.90;;;;;;5047093;28;20444;-51
2022/06/23 10:00:29;;;;;;;5.07;1.60;;;31.30;53.00;;;;;;5055246;28;20429;-51
2022/06/23 10:03:22;;;;;;;2.10;1.83;;;31.30;53.20;;;;;;5042962;28;20480;-48
2022/06/23 10:05:52;;;;;;;7.27;2.07;;;31.30;52.00;;;;;;5051140;28;20502;-50
2022/06/23 10:08:39;;;;;;;2.60;1.97;;;31.10;51.40;;;;;;5052754;28;20428;-53
2022/06/23 10:11:20;;;;;;;1.93;1.73;;;30.60;52.40;;;;;;5049957;28;20429;-53
2022/06/23 10:14:02;;;;;;;3.40;2.30;;;30.50;53.20;;;;;;5044721;28;20444;-49
2022/06/23 10:17:10;;;;;;;2.33;2.00;;;30.10;54.50;;;;;;5051396;28;20758;-51
2022/06/23 10:19:56;;;;;;;4.73;2.60;;;30.00;54.50;;;;;;5050362;28;20804;-55
2022/06/23 10:22:42;;;;;;;2.03;1.60;;;29.80;53.60;;;;;;5051331;28;20484;-53
2022/06/23 10:25:50;;;;;;;1.80;1.70;;;29.00;54.70;;;;;;5052423;28;20499;-51
2022/06/23 10:28:32;;;;;;;2.90;1.83;;;28.60;56.20;;;;;;5050345;28;20442;-49
2022/06/23 10:31:44;;;;;;;6.00;1.70;;;28.70;56.10;;;;;;5045705;28;20519;-52
2022/06/23 10:34:35;;;;;;;2.10;2.00;;;28.40;55.30;;;;;;4970651;28;20432;-50
2022/06/23 10:37:05;;;;;;;3.53;1.83;;;28.10;54.90;;;;;;5044426;28;20425;-54
2022/06/23 10:39:44;;;;;;;2.07;1.83;;;28.30;55.00;;;;;;5049955;28;20404;-50
2022/06/23 10:42:24;;;;;;;2.07;1.73;;;28.50;55.00;;;;;;5052698;28;21054;-52
2022/06/23 10:44:58;;;;;;;1.77;1.67;;;28.40;54.40;;;;;;5051330;28;20448;-53
2022/06/23 10:47:51;;;;;;;1.50;1.40;;;28.40;55.10;;;;;;5051461;28;20415;-49
2022/06/23 10:50:37;;;;;;;1.87;1.77;;;28.30;55.10;;;;;;5045169;28;20437;-51
2022/06/23 10:54:00;;;;;;;4.13;2.33;;;28.20;55.00;;;;;;5046276;28;20432;-54
2022/06/23 10:57:01;;;;;;;1.90;1.70;;;28.10;55.10;;;;;;5051300;28;20527;-53
2022/06/23 11:00:05;;;;;;;2.47;1.60;;;27.90;55.70;;;;;;5055484;28;20836;-55
2022/06/23 11:03:09;;;;;;;1.77;1.67;;;28.00;55.40;;;;;;5048474;28;20482;-54
2022/06/23 11:06:04;;;;;;;1.97;1.87;;;28.00;54.00;;;;;;5050802;28;20810;-54
2022/06/23 11:08:49;;;;;;;1.80;1.70;;;27.70;55.10;;;;;;5050087;28;20761;-51
2022/06/23 11:11:41;;;;;;;1.50;1.40;;;27.80;55.30;;;;;;5051579;28;20429;-53
2022/06/23 11:14:26;;;;;;;1.67;1.53;;;27.90;54.50;;;;;;5046901;28;20826;-54
2022/06/23 11:17:16;;;;;;;4.03;2.13;;;28.00;54.70;;;;;;5037694;28;20441;-48
2022/06/23 11:20:16;;;;;;;1.57;1.47;;;28.20;55.70;;;;;;5051521;28;20801;-52
2022/06/23 11:22:59;;;;;;;2.30;2.10;;;28.60;55.40;;;;;;5050127;28;20484;-50
2022/06/23 11:25:38;;;;;;;1.93;1.70;;;29.20;54.30;;;;;;5051254;28;20794;-47
2022/06/23 11:28:26;;;;;;;1.60;1.50;;;29.30;53.70;;;;;;5048136;28;20407;-47
2022/06/23 11:31:18;;;;;;;2.50;2.00;;;29.30;53.70;;;;;;5044358;28;20481;-51
2022/06/23 11:34:33;;;;;;;2.87;2.40;;;29.20;53.80;;;;;;5037120;28;20651;-51
2022/06/23 11:37:22;;;;;;;6.07;2.00;;;28.90;53.80;;;;;;5039705;28;20488;-48
2022/06/23 11:40:37;;;;;;;2.73;2.37;;;28.50;53.70;;;;;;5044021;28;20471;-49
2022/06/23 11:43:33;;;;;;;4.20;2.47;;;28.20;53.90;;;;;;5044465;28;20815;-47
2022/06/23 11:46:19;;;;;;;2.00;1.53;;;28.20;53.50;;;;;;5042889;28;20454;-47
2022/06/23 11:49:14;;;;;;;2.47;2.10;;;28.40;54.10;;;;;;5035909;28;20433;-49
2022/06/23 11:52:32;;;;;;;1.60;1.50;;;28.20;54.40;;;;;;5050818;28;20446;-48
2022/06/23 11:54:59;;;;;;;3.47;2.53;;;28.30;54.10;;;;;;5008800;28;20472;-49
2022/06/23 11:57:39;;;;;;;1.57;1.47;;;28.30;54.50;;;;;;5052733;28;20441;-53
2022/06/23 12:00:11;;;;;;;3.27;2.33;;;28.30;54.00;;;;;;5054646;28;20440;-48
2022/06/23 12:03:27;;;;;;;1.53;1.43;;;28.30;54.90;;;;;;5046160;28;20814;-55
2022/06/23 12:06:10;;;;;;;1.80;1.70;;;28.50;54.70;;;;;;5047387;28;20825;-52
2022/06/23 12:08:58;;;;;;;1.90;1.80;;;28.50;54.80;;;;;;5052752;28;20429;-54
2022/06/23 12:11:27;;;;;;;2.70;1.70;;;28.50;54.00;;;;;;5059161;28;20439;-52
2022/06/23 12:13:58;;;;;;;3.00;2.10;;;28.30;54.70;;;;;;5051304;28;20412;-51
2022/06/23 12:16:26;;;;;;;2.07;1.97;;;28.40;54.10;;;;;;5051244;28;20749;-52
2022/06/23 12:19:01;;;;;;;3.07;2.07;;;28.50;55.00;;;;;;5056470;28;20456;-54
2022/06/23 12:21:45;;;;;;;2.30;2.10;;;28.80;55.50;;;;;;5051256;28;20437;-51
2022/06/23 12:24:23;;;;;;;1.77;1.67;;;28.90;56.00;;;;;;5054259;28;20479;-54
2022/06/23 12:27:12;;;;;;;3.83;2.20;;;28.80;55.80;;;;;;5040530;28;20432;-50
2022/06/23 12:29:53;;;;;;;2.40;2.20;;;28.70;55.30;;;;;;5053888;28;20479;-51
2022/06/23 12:32:31;;;;;;;3.00;2.20;;;28.70;55.90;;;;;;5054994;28;20439;-50
2022/06/23 12:35:10;;;;;;;3.13;1.70;;;28.70;56.40;;;;;;5047713;28;20453;-54
2022/06/23 12:37:53;;;;;;;2.20;2.10;;;28.40;56.40;;;;;;5052071;28;20451;-49
2022/06/23 12:40:35;;;;;;;1.93;1.83;;;28.50;56.70;;;;;;5058515;28;20440;-48
2022/06/23 12:43:31;;;;;;;2.53;2.33;;;28.80;56.50;;;;;;5050984;28;20473;-51
2022/06/23 12:46:06;;;;;;;3.90;2.53;;;29.00;56.80;;;;;;5045457;28;20470;-51
2022/06/23 12:48:55;;;;;;;1.70;1.57;;;29.10;55.30;;;;;;5051115;28;20438;-50
2022/06/23 12:51:37;;;;;;;3.40;1.97;;;29.20;55.70;;;;;;5053979;28;20444;-48
2022/06/23 12:54:40;;;;;;;1.30;1.20;;;29.30;56.30;;;;;;5050802;28;20440;-49
2022/06/23 12:57:11;;;;;;;5.23;2.53;;;29.30;55.50;;;;;;5049152;28;20436;-51
2022/06/23 12:59:56;;;;;;;2.50;2.30;;;29.20;56.10;;;;;;5052854;28;20429;-51
2022/06/23 13:02:35;;;;;;;5.60;2.07;;;29.30;56.40;;;;;;5051295;28;20637;-54
2022/06/23 13:05:12;;;;;;;3.50;2.10;;;29.20;55.70;;;;;;5054474;28;20465;-53
2022/06/23 13:07:52;;;;;;;2.23;2.10;;;29.10;56.00;;;;;;5053570;28;20783;-51
2022/06/23 13:10:36;;;;;;;2.57;2.23;;;29.00;55.60;;;;;;5053461;28;20467;-51
2022/06/23 13:13:10;;;;;;;2.47;2.27;;;29.10;56.30;;;;;;5048360;28;20832;-50
2022/06/23 13:15:51;;;;;;;2.83;2.63;;;29.20;56.10;;;;;;5051910;28;20840;-53
2022/06/23 13:18:36;;;;;;;1.53;1.43;;;29.20;56.60;;;;;;5055687;28;20486;-50
2022/06/23 13:21:26;;;;;;;3.03;1.83;;;29.30;57.10;;;;;;5050625;28;20448;-53
2022/06/23 13:24:09;;;;;;;2.50;2.10;;;29.30;57.20;;;;;;5030045;28;20481;-53
2022/06/23 13:26:44;;;;;;;2.60;2.40;;;29.40;56.50;;;;;;5026598;28;20662;-51
2022/06/23 13:29:23;;;;;;;4.43;2.20;;;29.30;56.50;;;;;;5024929;28;20434;-51
2022/06/23 13:32:16;;;;;;;3.50;1.97;;;29.20;56.20;;;;;;5031323;28;20440;-54
2022/06/23 13:35:11;;;;;;;2.30;2.10;;;29.20;57.00;;;;;;5025144;28;20624;-54
2022/06/23 13:38:21;;;;;;;2.03;1.93;;;29.20;56.30;;;;;;5026073;28;20465;-53
2022/06/23 13:41:10;;;;;;;3.10;2.03;;;28.90;57.40;;;;;;4963570;28;20441;-54
2022/06/23 13:43:49;;;;;;;2.03;1.80;;;28.70;58.10;;;;;;5023725;28;20545;-49
2022/06/23 13:46:28;;;;;;;3.23;2.00;;;28.80;57.50;;;;;;5024887;28;20473;-50
2022/06/23 13:49:10;;;;;;;3.33;1.70;;;28.80;57.90;;;;;;5025162;28;20478;-52
2022/06/23 13:52:16;;;;;;;1.63;1.53;;;28.90;58.10;;;;;;5028251;28;20427;-52
2022/06/23 13:55:04;;;;;;;2.50;1.50;;;28.90;57.40;;;;;;5027086;28;20458;-54
2022/06/23 13:57:59;;;;;;;2.37;2.27;;;28.70;57.90;;;;;;5027630;28;20435;-51
2022/06/23 14:00:33;;;;;;;2.47;2.17;;;28.50;58.20;;;;;;5025788;28;20812;-47
2022/06/23 14:03:12;;;;;;;2.00;1.90;;;28.40;58.10;;;;;;5025606;28;20540;-49
2022/06/23 14:06:02;;;;;;;2.27;2.07;;;28.40;58.00;;;;;;5037080;28;20466;-51
2022/06/23 14:08:32;;;;;;;1.97;1.87;;;28.10;58.70;;;;;;5023326;28;20464;-50
2022/06/23 14:11:24;;;;;;;3.10;2.13;;;27.90;58.70;;;;;;5028272;28;20441;-49
2022/06/23 14:13:52;;;;;;;1.97;1.87;;;27.80;59.50;;;;;;5028531;28;20452;-49
2022/06/23 14:16:27;;;;;;;2.03;1.90;;;27.90;59.50;;;;;;5036106;28;20454;-51